createdAt,value
2023-05-21T21:02:18.851Z,13.15
2023-05-21T21:04:49.232Z,8.45
2023-05-21T21:07:20.043Z,11.32
2023-05-21T21:09:49.265Z,12.15
2023-05-21T21:14:46.861Z,12.63
2023-05-21T21:17:14.146Z,11.35
2023-05-21T21:19:41.402Z,14.80
2023-05-21T21:22:08.783Z,11.85
2023-05-21T21:24:36.123Z,11.93
2023-05-21T21:27:03.496Z,13.57
2023-05-21T21:29:30.737Z,16.00
2023-05-21T21:31:58.045Z,16.33
2023-05-21T21:34:25.559Z,17.55
2023-05-21T21:39:21.237Z,15.10
2023-05-21T21:41:48.563Z,20.30
2023-05-21T21:44:16.011Z,19.13
2023-05-21T21:46:43.275Z,24.17
2023-05-21T21:49:10.675Z,26.17
2023-05-21T21:51:38.244Z,33.13
2023-05-21T21:56:32.684Z,32.97
2023-05-21T21:58:59.930Z,33.10
2023-05-21T22:01:27.629Z,22.25
2023-05-21T22:03:55.096Z,17.33
2023-05-21T22:06:22.482Z,12.55
2023-05-21T22:08:49.846Z,13.90
2023-05-21T22:11:17.433Z,9.90
2023-05-21T22:16:12.281Z,13.05
2023-05-21T22:18:42.106Z,11.95
2023-05-21T22:21:10.697Z,11.90
2023-05-21T22:23:38.791Z,8.68
2023-05-21T22:26:09.997Z,6.32
2023-05-21T22:28:37.371Z,7.88
2023-05-21T22:31:05.210Z,9.63
2023-05-21T22:33:32.581Z,12.68
2023-05-21T22:35:59.988Z,5.57
2023-05-21T22:38:27.272Z,9.18
2023-05-21T22:40:54.852Z,7.43
2023-05-21T22:45:49.251Z,5.38
2023-05-21T22:48:18.392Z,6.13
2023-05-21T22:50:46.441Z,6.07
2023-05-21T22:53:13.928Z,7.03
2023-05-21T22:55:41.215Z,6.07
2023-05-21T22:58:08.505Z,9.50
2023-05-21T23:00:35.963Z,6.97
2023-05-21T23:03:03.836Z,5.97
2023-05-21T23:05:31.316Z,8.80
2023-05-21T23:07:58.544Z,6.05
2023-05-21T23:10:25.797Z,6.70
2023-05-21T23:12:53.070Z,7.47
2023-05-21T23:15:21.822Z,4.10
2023-05-21T23:17:49.267Z,5.95
2023-05-21T23:20:16.646Z,9.07
2023-05-21T23:22:43.959Z,7.70
2023-05-21T23:25:11.246Z,6.80
2023-05-21T23:27:38.496Z,7.40
2023-05-21T23:30:06.599Z,6.07
2023-05-21T23:32:33.997Z,5.70
2023-05-21T23:35:01.907Z,5.35
2023-05-21T23:37:31.198Z,12.05
2023-05-21T23:39:58.519Z,4.68
2023-05-21T23:42:25.872Z,5.88
2023-05-21T23:44:53.195Z,4.22
2023-05-21T23:47:20.534Z,5.18
2023-05-21T23:49:47.754Z,4.15
2023-05-21T23:52:17.483Z,6.53
2023-05-21T23:54:44.987Z,6.32
2023-05-21T23:57:13.660Z,6.40
2023-05-21T23:59:41.093Z,4.78
